sensor_id;sensor_type;location;lat;lon;timestamp;P1;durP1;ratioP1;P2;durP2;ratioP2
803;SDS011;25687;49.976;8.240;2024-01-07T00:00:27;3.27;;;2.97;;
803;SDS011;25687;49.976;8.240;2024-01-07T00:02:53;3.93;;;3.20;;
803;SDS011;25687;49.976;8.240;2024-01-07T00:05:18;4.97;;;3.30;;
803;SDS011;25687;49.976;8.240;2024-01-07T00:07:43;3.70;;;2.87;;
803;SDS011;25687;49.976;8.240;2024-01-07T00:10:09;3.57;;;2.97;;
803;SDS011;25687;49.976;8.240;2024-01-07T00:12:34;3.50;;;3.07;;
803;SDS011;25687;49.976;8.240;2024-01-07T00:15:00;3.67;;;3.23;;
803;SDS011;25687;49.976;8.240;2024-01-07T00:17:25;4.03;;;2.77;;
803;SDS011;25687;49.976;8.240;2024-01-07T00:19:51;3.93;;;3.30;;
803;SDS011;25687;49.976;8.240;2024-01-07T00:22:16;4.10;;;3.70;;
803;SDS011;25687;49.976;8.240;2024-01-07T00:24:42;3.80;;;3.37;;
803;SDS011;25687;49.976;8.240;2024-01-07T00:27:07;4.70;;;3.83;;
803;SDS011;25687;49.976;8.240;2024-01-07T00:29:33;5.40;;;4.00;;
803;SDS011;25687;49.976;8.240;2024-01-07T00:32:00;4.50;;;3.50;;
803;SDS011;25687;49.976;8.240;2024-01-07T00:34:25;4.43;;;4.03;;
803;SDS011;25687;49.976;8.240;2024-01-07T00:36:51;4.67;;;3.77;;
803;SDS011;25687;49.976;8.240;2024-01-07T00:39:16;6.43;;;4.27;;
803;SDS011;25687;49.976;8.240;2024-01-07T00:41:41;5.20;;;4.17;;
803;SDS011;25687;49.976;8.240;2024-01-07T00:44:06;5.50;;;4.50;;
803;SDS011;25687;49.976;8.240;2024-01-07T00:46:33;6.97;;;4.60;;
803;SDS011;25687;49.976;8.240;2024-01-07T00:48:58;4.63;;;4.03;;
803;SDS011;25687;49.976;8.240;2024-01-07T00:51:23;5.13;;;4.57;;
803;SDS011;25687;49.976;8.240;2024-01-07T00:53:48;6.30;;;5.13;;
803;SDS011;25687;49.976;8.240;2024-01-07T00:56:14;5.63;;;4.90;;
803;SDS011;25687;49.976;8.240;2024-01-07T00:58:39;6.10;;;5.23;;
803;SDS011;25687;49.976;8.240;2024-01-07T01:01:05;5.90;;;5.00;;
803;SDS011;25687;49.976;8.240;2024-01-07T01:03:31;6.77;;;5.33;;
803;SDS011;25687;49.976;8.240;2024-01-07T01:05:56;6.00;;;5.20;;
803;SDS011;25687;49.976;8.240;2024-01-07T01:08:21;6.50;;;5.13;;
803;SDS011;25687;49.976;8.240;2024-01-07T01:10:48;5.10;;;4.60;;
803;SDS011;25687;49.976;8.240;2024-01-07T01:13:13;5.20;;;4.70;;
803;SDS011;25687;49.976;8.240;2024-01-07T01:15:38;6.40;;;5.07;;
803;SDS011;25687;49.976;8.240;2024-01-07T01:18:04;5.93;;;5.20;;
803;SDS011;25687;49.976;8.240;2024-01-07T01:20:29;5.10;;;4.53;;
803;SDS011;25687;49.976;8.240;2024-01-07T01:22:55;5.37;;;4.80;;
803;SDS011;25687;49.976;8.240;2024-01-07T01:25:20;6.87;;;5.13;;
803;SDS011;25687;49.976;8.240;2024-01-07T01:27:45;5.83;;;5.00;;
803;SDS011;25687;49.976;8.240;2024-01-07T01:30:11;5.40;;;4.67;;
803;SDS011;25687;49.976;8.240;2024-01-07T01:32:38;6.07;;;4.87;;
803;SDS011;25687;49.976;8.240;2024-01-07T01:35:04;6.40;;;5.43;;
803;SDS011;25687;49.976;8.240;2024-01-07T01:37:30;5.10;;;4.60;;
803;SDS011;25687;49.976;8.240;2024-01-07T01:39:57;6.23;;;5.20;;
803;SDS011;25687;49.976;8.240;2024-01-07T01:42:23;6.57;;;5.20;;
803;SDS011;25687;49.976;8.240;2024-01-07T01:44:48;5.73;;;5.00;;
803;SDS011;25687;49.976;8.240;2024-01-07T01:47:13;5.63;;;4.67;;
803;SDS011;25687;49.976;8.240;2024-01-07T01:49:39;5.97;;;4.90;;
803;SDS011;25687;49.976;8.240;2024-01-07T01:52:05;6.40;;;5.03;;
803;SDS011;25687;49.976;8.240;2024-01-07T01:54:30;6.10;;;5.40;;
803;SDS011;25687;49.976;8.240;2024-01-07T01:56:56;6.30;;;5.37;;
803;SDS011;25687;49.976;8.240;2024-01-07T01:59:21;6.43;;;5.30;;
803;SDS011;25687;49.976;8.240;2024-01-07T02:01:47;5.70;;;5.10;;
803;SDS011;25687;49.976;8.240;2024-01-07T02:04:13;6.07;;;5.23;;
803;SDS011;25687;49.976;8.240;2024-01-07T02:06:39;5.40;;;4.80;;
803;SDS011;25687;49.976;8.240;2024-01-07T02:09:04;5.50;;;4.00;;
803;SDS011;25687;49.976;8.240;2024-01-07T02:11:30;5.20;;;4.70;;
803;SDS011;25687;49.976;8.240;2024-01-07T02:13:55;6.00;;;5.00;;
803;SDS011;25687;49.976;8.240;2024-01-07T02:16:20;5.73;;;4.87;;
803;SDS011;25687;49.976;8.240;2024-01-07T02:18:46;5.73;;;4.90;;
803;SDS011;25687;49.976;8.240;2024-01-07T02:21:12;5.87;;;4.87;;
803;SDS011;25687;49.976;8.240;2024-01-07T02:23:38;5.73;;;5.13;;
803;SDS011;25687;49.976;8.240;2024-01-07T02:26:04;5.53;;;5.00;;
803;SDS011;25687;49.976;8.240;2024-01-07T02:28:30;6.73;;;5.00;;
803;SDS011;25687;49.976;8.240;2024-01-07T02:30:55;5.27;;;4.70;;
803;SDS011;25687;49.976;8.240;2024-01-07T02:33:21;5.67;;;5.17;;
803;SDS011;25687;49.976;8.240;2024-01-07T02:35:46;5.23;;;4.73;;
803;SDS011;25687;49.976;8.240;2024-01-07T02:38:11;5.00;;;4.47;;
803;SDS011;25687;49.976;8.240;2024-01-07T02:40:37;6.10;;;5.50;;
803;SDS011;25687;49.976;8.240;2024-01-07T02:43:02;5.70;;;5.20;;
803;SDS011;25687;49.976;8.240;2024-01-07T02:45:27;5.53;;;4.50;;
803;SDS011;25687;49.976;8.240;2024-01-07T02:47:52;5.43;;;4.83;;
803;SDS011;25687;49.976;8.240;2024-01-07T02:50:18;5.50;;;4.80;;
803;SDS011;25687;49.976;8.240;2024-01-07T02:52:43;6.93;;;5.77;;
803;SDS011;25687;49.976;8.240;2024-01-07T02:55:08;4.73;;;4.13;;
803;SDS011;25687;49.976;8.240;2024-01-07T02:57:34;5.33;;;4.83;;
803;SDS011;25687;49.976;8.240;2024-01-07T02:59:59;6.00;;;4.67;;
803;SDS011;25687;49.976;8.240;2024-01-07T03:02:25;5.70;;;4.53;;
803;SDS011;25687;49.976;8.240;2024-01-07T03:04:50;7.17;;;4.70;;
803;SDS011;25687;49.976;8.240;2024-01-07T03:07:15;5.50;;;4.87;;
803;SDS011;25687;49.976;8.240;2024-01-07T03:09:41;5.97;;;4.60;;
803;SDS011;25687;49.976;8.240;2024-01-07T03:12:06;5.20;;;4.30;;
803;SDS011;25687;49.976;8.240;2024-01-07T03:14:31;5.13;;;4.63;;
803;SDS011;25687;49.976;8.240;2024-01-07T03:16:56;5.20;;;4.50;;
803;SDS011;25687;49.976;8.240;2024-01-07T03:19:22;5.47;;;4.60;;
803;SDS011;25687;49.976;8.240;2024-01-07T03:21:50;4.93;;;4.43;;
803;SDS011;25687;49.976;8.240;2024-01-07T03:24:15;5.63;;;5.07;;
803;SDS011;25687;49.976;8.240;2024-01-07T03:26:41;6.03;;;4.37;;
803;SDS011;25687;49.976;8.240;2024-01-07T03:29:06;4.53;;;4.13;;
803;SDS011;25687;49.976;8.240;2024-01-07T03:31:31;5.20;;;4.50;;
803;SDS011;25687;49.976;8.240;2024-01-07T03:33:57;7.27;;;4.60;;
803;SDS011;25687;49.976;8.240;2024-01-07T03:36:22;8.07;;;4.73;;
803;SDS011;25687;49.976;8.240;2024-01-07T03:38:47;5.03;;;4.53;;
803;SDS011;25687;49.976;8.240;2024-01-07T03:41:16;4.93;;;4.20;;
803;SDS011;25687;49.976;8.240;2024-01-07T03:43:43;5.90;;;4.80;;
803;SDS011;25687;49.976;8.240;2024-01-07T03:46:09;4.10;;;3.47;;
803;SDS011;25687;49.976;8.240;2024-01-07T03:48:34;4.87;;;4.33;;
803;SDS011;25687;49.976;8.240;2024-01-07T03:50:59;5.57;;;4.80;;
803;SDS011;25687;49.976;8.240;2024-01-07T03:53:24;5.20;;;4.70;;
803;SDS011;25687;49.976;8.240;2024-01-07T03:55:50;5.00;;;4.50;;
803;SDS011;25687;49.976;8.240;2024-01-07T03:58:15;4.97;;;4.47;;
803;SDS011;25687;49.976;8.240;2024-01-07T04:00:40;5.90;;;4.93;;
803;SDS011;25687;49.976;8.240;2024-01-07T04:03:05;5.50;;;4.70;;
803;SDS011;25687;49.976;8.240;2024-01-07T04:05:31;5.97;;;4.73;;
803;SDS011;25687;49.976;8.240;2024-01-07T04:07:58;5.47;;;4.97;;
803;SDS011;25687;49.976;8.240;2024-01-07T04:10:23;5.43;;;4.63;;
803;SDS011;25687;49.976;8.240;2024-01-07T04:12:48;6.03;;;4.80;;
803;SDS011;25687;49.976;8.240;2024-01-07T04:15:13;5.67;;;5.13;;
803;SDS011;25687;49.976;8.240;2024-01-07T04:17:39;5.50;;;4.73;;
803;SDS011;25687;49.976;8.240;2024-01-07T04:20:05;5.17;;;4.57;;
803;SDS011;25687;49.976;8.240;2024-01-07T04:22:31;5.07;;;4.03;;
803;SDS011;25687;49.976;8.240;2024-01-07T04:24:56;5.17;;;4.20;;
803;SDS011;25687;49.976;8.240;2024-01-07T04:27:21;4.83;;;4.23;;
803;SDS011;25687;49.976;8.240;2024-01-07T04:29:46;5.57;;;4.67;;
803;SDS011;25687;49.976;8.240;2024-01-07T04:32:12;5.23;;;4.73;;
803;SDS011;25687;49.976;8.240;2024-01-07T04:34:37;4.27;;;3.87;;
803;SDS011;25687;49.976;8.240;2024-01-07T04:37:02;5.47;;;4.37;;
803;SDS011;25687;49.976;8.240;2024-01-07T04:39:28;4.17;;;3.77;;
803;SDS011;25687;49.976;8.240;2024-01-07T04:41:53;4.90;;;4.40;;
803;SDS011;25687;49.976;8.240;2024-01-07T04:44:18;5.03;;;4.37;;
803;SDS011;25687;49.976;8.240;2024-01-07T04:46:44;5.40;;;4.50;;
803;SDS011;25687;49.976;8.240;2024-01-07T04:49:09;4.80;;;4.30;;
803;SDS011;25687;49.976;8.240;2024-01-07T04:51:34;5.17;;;4.13;;
803;SDS011;25687;49.976;8.240;2024-01-07T04:54:01;4.50;;;3.97;;
803;SDS011;25687;49.976;8.240;2024-01-07T04:56:26;4.43;;;4.10;;
803;SDS011;25687;49.976;8.240;2024-01-07T04:58:52;4.77;;;4.00;;
803;SDS011;25687;49.976;8.240;2024-01-07T05:01:17;4.33;;;3.80;;
803;SDS011;25687;49.976;8.240;2024-01-07T05:03:42;4.37;;;3.97;;
803;SDS011;25687;49.976;8.240;2024-01-07T05:06:08;4.13;;;3.63;;
803;SDS011;25687;49.976;8.240;2024-01-07T05:08:36;4.57;;;3.70;;
803;SDS011;25687;49.976;8.240;2024-01-07T05:11:02;4.67;;;4.10;;
803;SDS011;25687;49.976;8.240;2024-01-07T05:13:28;5.33;;;3.90;;
803;SDS011;25687;49.976;8.240;2024-01-07T05:15:53;4.73;;;4.30;;
803;SDS011;25687;49.976;8.240;2024-01-07T05:18:22;4.73;;;4.00;;
803;SDS011;25687;49.976;8.240;2024-01-07T05:20:48;5.57;;;4.13;;
803;SDS011;25687;49.976;8.240;2024-01-07T05:23:14;5.57;;;4.40;;
803;SDS011;25687;49.976;8.240;2024-01-07T05:25:39;5.33;;;4.17;;
803;SDS011;25687;49.976;8.240;2024-01-07T05:28:05;5.53;;;4.67;;
803;SDS011;25687;49.976;8.240;2024-01-07T05:30:31;4.33;;;3.77;;
803;SDS011;25687;49.976;8.240;2024-01-07T05:32:56;6.50;;;4.80;;
803;SDS011;25687;49.976;8.240;2024-01-07T05:35:21;6.17;;;4.90;;
803;SDS011;25687;49.976;8.240;2024-01-07T05:37:47;4.47;;;4.07;;
803;SDS011;25687;49.976;8.240;2024-01-07T05:40:12;5.17;;;4.03;;
803;SDS011;25687;49.976;8.240;2024-01-07T05:42:37;4.50;;;3.77;;
803;SDS011;25687;49.976;8.240;2024-01-07T05:45:03;5.03;;;4.50;;
803;SDS011;25687;49.976;8.240;2024-01-07T05:47:28;4.50;;;4.07;;
803;SDS011;25687;49.976;8.240;2024-01-07T05:49:55;5.90;;;4.70;;
803;SDS011;25687;49.976;8.240;2024-01-07T05:52:20;4.77;;;3.50;;
803;SDS011;25687;49.976;8.240;2024-01-07T05:54:45;4.77;;;4.00;;
803;SDS011;25687;49.976;8.240;2024-01-07T05:57:11;4.70;;;4.20;;
803;SDS011;25687;49.976;8.240;2024-01-07T05:59:37;4.60;;;3.70;;
803;SDS011;25687;49.976;8.240;2024-01-07T06:02:02;4.47;;;3.70;;
803;SDS011;25687;49.976;8.240;2024-01-07T06:04:28;4.67;;;3.83;;
803;SDS011;25687;49.976;8.240;2024-01-07T06:06:53;5.57;;;3.43;;
803;SDS011;25687;49.976;8.240;2024-01-07T06:09:19;3.63;;;3.33;;
803;SDS011;25687;49.976;8.240;2024-01-07T06:11:44;3.77;;;3.20;;
803;SDS011;25687;49.976;8.240;2024-01-07T06:14:09;4.37;;;3.17;;
803;SDS011;25687;49.976;8.240;2024-01-07T06:16:34;4.13;;;3.17;;
803;SDS011;25687;49.976;8.240;2024-01-07T06:19:00;4.30;;;3.30;;
803;SDS011;25687;49.976;8.240;2024-01-07T06:21:25;3.90;;;3.50;;
803;SDS011;25687;49.976;8.240;2024-01-07T06:23:50;4.27;;;3.10;;
803;SDS011;25687;49.976;8.240;2024-01-07T06:26:15;5.70;;;3.73;;
803;SDS011;25687;49.976;8.240;2024-01-07T06:28:41;4.50;;;3.40;;
803;SDS011;25687;49.976;8.240;2024-01-07T06:31:06;4.00;;;3.50;;
803;SDS011;25687;49.976;8.240;2024-01-07T06:33:32;5.07;;;3.80;;
803;SDS011;25687;49.976;8.240;2024-01-07T06:35:57;5.83;;;4.67;;
803;SDS011;25687;49.976;8.240;2024-01-07T06:38:22;5.67;;;4.10;;
803;SDS011;25687;49.976;8.240;2024-01-07T06:40:48;5.57;;;4.43;;
803;SDS011;25687;49.976;8.240;2024-01-07T06:43:14;6.53;;;5.37;;
803;SDS011;25687;49.976;8.240;2024-01-07T06:45:39;8.23;;;5.07;;
803;SDS011;25687;49.976;8.240;2024-01-07T06:48:04;5.77;;;5.17;;
803;SDS011;25687;49.976;8.240;2024-01-07T06:50:30;7.30;;;4.70;;
803;SDS011;25687;49.976;8.240;2024-01-07T06:52:55;5.20;;;4.70;;
803;SDS011;25687;49.976;8.240;2024-01-07T06:55:21;7.77;;;6.00;;
803;SDS011;25687;49.976;8.240;2024-01-07T06:57:47;9.37;;;5.57;;
803;SDS011;25687;49.976;8.240;2024-01-07T07:00:12;8.47;;;5.50;;
803;SDS011;25687;49.976;8.240;2024-01-07T07:02:38;7.50;;;6.10;;
803;SDS011;25687;49.976;8.240;2024-01-07T07:05:04;9.20;;;6.47;;
803;SDS011;25687;49.976;8.240;2024-01-07T07:07:29;9.00;;;7.20;;
803;SDS011;25687;49.976;8.240;2024-01-07T07:09:54;10.57;;;8.00;;
803;SDS011;25687;49.976;8.240;2024-01-07T07:12:20;9.80;;;7.00;;
803;SDS011;25687;49.976;8.240;2024-01-07T07:14:45;10.20;;;6.37;;
803;SDS011;25687;49.976;8.240;2024-01-07T07:17:10;9.33;;;7.00;;
803;SDS011;25687;49.976;8.240;2024-01-07T07:19:36;9.37;;;6.67;;
803;SDS011;25687;49.976;8.240;2024-01-07T07:22:01;10.67;;;7.53;;
803;SDS011;25687;49.976;8.240;2024-01-07T07:24:26;9.97;;;7.23;;
803;SDS011;25687;49.976;8.240;2024-01-07T07:26:51;8.70;;;6.97;;
803;SDS011;25687;49.976;8.240;2024-01-07T07:29:17;11.07;;;6.77;;
803;SDS011;25687;49.976;8.240;2024-01-07T07:31:42;11.33;;;8.03;;
803;SDS011;25687;49.976;8.240;2024-01-07T07:34:08;9.57;;;7.60;;
803;SDS011;25687;49.976;8.240;2024-01-07T07:36:34;11.87;;;7.53;;
803;SDS011;25687;49.976;8.240;2024-01-07T07:39:00;10.83;;;8.57;;
803;SDS011;25687;49.976;8.240;2024-01-07T07:41:25;9.93;;;7.60;;
803;SDS011;25687;49.976;8.240;2024-01-07T07:43:50;10.67;;;7.57;;
803;SDS011;25687;49.976;8.240;2024-01-07T07:46:16;8.33;;;6.97;;
803;SDS011;25687;49.976;8.240;2024-01-07T07:48:41;7.93;;;5.87;;
803;SDS011;25687;49.976;8.240;2024-01-07T07:51:06;7.60;;;5.40;;
803;SDS011;25687;49.976;8.240;2024-01-07T07:53:32;6.27;;;5.30;;
803;SDS011;25687;49.976;8.240;2024-01-07T07:55:57;6.53;;;5.10;;
803;SDS011;25687;49.976;8.240;2024-01-07T07:58:23;6.67;;;5.43;;
803;SDS011;25687;49.976;8.240;2024-01-07T08:00:48;5.80;;;4.63;;
803;SDS011;25687;49.976;8.240;2024-01-07T08:03:13;5.60;;;5.00;;
803;SDS011;25687;49.976;8.240;2024-01-07T08:05:39;5.83;;;5.23;;
803;SDS011;25687;49.976;8.240;2024-01-07T08:08:06;6.40;;;4.83;;
803;SDS011;25687;49.976;8.240;2024-01-07T08:10:32;5.60;;;5.00;;
803;SDS011;25687;49.976;8.240;2024-01-07T08:12:57;5.87;;;4.53;;
803;SDS011;25687;49.976;8.240;2024-01-07T08:15:23;6.50;;;5.07;;
803;SDS011;25687;49.976;8.240;2024-01-07T08:17:48;5.63;;;4.20;;
803;SDS011;25687;49.976;8.240;2024-01-07T08:20:13;5.37;;;4.70;;
803;SDS011;25687;49.976;8.240;2024-01-07T08:22:39;5.63;;;5.03;;
803;SDS011;25687;49.976;8.240;2024-01-07T08:25:04;7.53;;;5.00;;
803;SDS011;25687;49.976;8.240;2024-01-07T08:27:30;6.43;;;4.50;;
803;SDS011;25687;49.976;8.240;2024-01-07T08:29:57;7.57;;;4.97;;
803;SDS011;25687;49.976;8.240;2024-01-07T08:32:22;5.70;;;4.63;;
803;SDS011;25687;49.976;8.240;2024-01-07T08:34:48;6.20;;;5.03;;
803;SDS011;25687;49.976;8.240;2024-01-07T08:37:14;6.07;;;4.60;;
803;SDS011;25687;49.976;8.240;2024-01-07T08:39:39;6.67;;;5.53;;
803;SDS011;25687;49.976;8.240;2024-01-07T08:42:04;7.73;;;5.70;;
803;SDS011;25687;49.976;8.240;2024-01-07T08:44:30;7.87;;;5.90;;
803;SDS011;25687;49.976;8.240;2024-01-07T08:46:55;6.27;;;5.63;;
803;SDS011;25687;49.976;8.240;2024-01-07T08:49:20;7.60;;;6.17;;
803;SDS011;25687;49.976;8.240;2024-01-07T08:51:46;7.67;;;5.40;;
803;SDS011;25687;49.976;8.240;2024-01-07T08:54:11;8.23;;;5.97;;
803;SDS011;25687;49.976;8.240;2024-01-07T08:56:36;7.43;;;5.93;;
803;SDS011;25687;49.976;8.240;2024-01-07T08:59:02;7.13;;;5.70;;
803;SDS011;25687;49.976;8.240;2024-01-07T09:01:29;7.10;;;5.23;;
803;SDS011;25687;49.976;8.240;2024-01-07T09:03:54;7.37;;;5.80;;
803;SDS011;25687;49.976;8.240;2024-01-07T09:06:19;8.43;;;6.10;;
803;SDS011;25687;49.976;8.240;2024-01-07T09:08:45;6.90;;;5.37;;
803;SDS011;25687;49.976;8.240;2024-01-07T09:11:10;7.73;;;6.03;;
803;SDS011;25687;49.976;8.240;2024-01-07T09:13:37;8.57;;;6.00;;
803;SDS011;25687;49.976;8.240;2024-01-07T09:16:02;8.00;;;6.17;;
803;SDS011;25687;49.976;8.240;2024-01-07T09:18:28;7.33;;;5.70;;
803;SDS011;25687;49.976;8.240;2024-01-07T09:20:53;7.93;;;6.07;;
803;SDS011;25687;49.976;8.240;2024-01-07T09:23:18;7.77;;;6.27;;
803;SDS011;25687;49.976;8.240;2024-01-07T09:25:43;10.17;;;5.60;;
803;SDS011;25687;49.976;8.240;2024-01-07T09:28:11;6.83;;;4.97;;
803;SDS011;25687;49.976;8.240;2024-01-07T09:30:36;7.03;;;6.10;;
803;SDS011;25687;49.976;8.240;2024-01-07T09:33:01;5.90;;;5.10;;
803;SDS011;25687;49.976;8.240;2024-01-07T09:35:27;6.30;;;5.00;;
803;SDS011;25687;49.976;8.240;2024-01-07T09:37:52;6.40;;;4.73;;
803;SDS011;25687;49.976;8.240;2024-01-07T09:40:17;7.57;;;5.70;;
803;SDS011;25687;49.976;8.240;2024-01-07T09:42:44;8.73;;;5.90;;
803;SDS011;25687;49.976;8.240;2024-01-07T09:45:10;7.60;;;5.67;;
803;SDS011;25687;49.976;8.240;2024-01-07T09:47:38;7.07;;;5.60;;
803;SDS011;25687;49.976;8.240;2024-01-07T09:50:05;8.70;;;6.53;;
803;SDS011;25687;49.976;8.240;2024-01-07T09:52:31;8.30;;;6.10;;
803;SDS011;25687;49.976;8.240;2024-01-07T09:54:59;8.80;;;6.10;;
803;SDS011;25687;49.976;8.240;2024-01-07T09:57:27;7.70;;;5.97;;
803;SDS011;25687;49.976;8.240;2024-01-07T09:59:53;7.43;;;5.73;;
803;SDS011;25687;49.976;8.240;2024-01-07T10:02:19;7.73;;;5.50;;
803;SDS011;25687;49.976;8.240;2024-01-07T10:04:45;8.07;;;5.97;;
803;SDS011;25687;49.976;8.240;2024-01-07T10:07:12;9.00;;;6.83;;
803;SDS011;25687;49.976;8.240;2024-01-07T10:09:37;10.03;;;6.60;;
803;SDS011;25687;49.976;8.240;2024-01-07T10:12:07;6.43;;;5.73;;
803;SDS011;25687;49.976;8.240;2024-01-07T10:14:33;8.80;;;6.13;;
803;SDS011;25687;49.976;8.240;2024-01-07T10:16:58;8.23;;;5.70;;
803;SDS011;25687;49.976;8.240;2024-01-07T10:19:24;6.73;;;6.03;;
803;SDS011;25687;49.976;8.240;2024-01-07T10:22:05;8.83;;;6.57;;
803;SDS011;25687;49.976;8.240;2024-01-07T10:24:37;8.83;;;6.50;;
803;SDS011;25687;49.976;8.240;2024-01-07T10:27:03;9.13;;;6.47;;
803;SDS011;25687;49.976;8.240;2024-01-07T10:29:29;6.07;;;5.37;;
803;SDS011;25687;49.976;8.240;2024-01-07T10:31:56;8.13;;;6.13;;
803;SDS011;25687;49.976;8.240;2024-01-07T10:34:22;7.10;;;5.53;;
803;SDS011;25687;49.976;8.240;2024-01-07T10:36:48;9.63;;;5.70;;
803;SDS011;25687;49.976;8.240;2024-01-07T10:39:16;8.40;;;6.13;;
803;SDS011;25687;49.976;8.240;2024-01-07T10:41:42;7.10;;;5.23;;
803;SDS011;25687;49.976;8.240;2024-01-07T10:44:08;7.83;;;6.07;;
803;SDS011;25687;49.976;8.240;2024-01-07T10:46:33;6.50;;;5.13;;
803;SDS011;25687;49.976;8.240;2024-01-07T10:48:59;6.50;;;5.60;;
803;SDS011;25687;49.976;8.240;2024-01-07T10:51:28;6.43;;;5.17;;
803;SDS011;25687;49.976;8.240;2024-01-07T10:53:53;6.60;;;5.37;;
803;SDS011;25687;49.976;8.240;2024-01-07T10:56:24;6.97;;;5.20;;
803;SDS011;25687;49.976;8.240;2024-01-07T10:58:53;6.43;;;5.70;;
803;SDS011;25687;49.976;8.240;2024-01-07T11:01:19;8.90;;;5.97;;
803;SDS011;25687;49.976;8.240;2024-01-07T11:04:08;6.53;;;5.60;;
803;SDS011;25687;49.976;8.240;2024-01-07T11:12:21;6.03;;;5.43;;
803;SDS011;25687;49.976;8.240;2024-01-07T11:14:46;9.03;;;5.47;;
803;SDS011;25687;49.976;8.240;2024-01-07T11:17:39;7.20;;;5.93;;
803;SDS011;25687;49.976;8.240;2024-01-07T11:20:04;6.00;;;5.30;;
803;SDS011;25687;49.976;8.240;2024-01-07T11:22:30;6.93;;;5.43;;
803;SDS011;25687;49.976;8.240;2024-01-07T11:24:56;6.53;;;5.40;;
803;SDS011;25687;49.976;8.240;2024-01-07T11:27:22;5.53;;;5.03;;
803;SDS011;25687;49.976;8.240;2024-01-07T11:29:52;6.47;;;5.53;;
803;SDS011;25687;49.976;8.240;2024-01-07T11:32:21;6.63;;;5.80;;
803;SDS011;25687;49.976;8.240;2024-01-07T11:34:48;6.07;;;5.23;;
803;SDS011;25687;49.976;8.240;2024-01-07T11:37:18;6.57;;;5.93;;
803;SDS011;25687;49.976;8.240;2024-01-07T11:39:47;7.23;;;5.80;;
803;SDS011;25687;49.976;8.240;2024-01-07T11:42:14;5.93;;;5.27;;
803;SDS011;25687;49.976;8.240;2024-01-07T11:44:52;6.67;;;5.33;;
803;SDS011;25687;49.976;8.240;2024-01-07T11:47:19;7.37;;;5.97;;
803;SDS011;25687;49.976;8.240;2024-01-07T11:49:45;5.50;;;4.97;;
803;SDS011;25687;49.976;8.240;2024-01-07T11:52:10;6.83;;;5.70;;
803;SDS011;25687;49.976;8.240;2024-01-07T11:54:39;7.23;;;5.70;;
803;SDS011;25687;49.976;8.240;2024-01-07T11:57:05;5.73;;;5.20;;
803;SDS011;25687;49.976;8.240;2024-01-07T11:59:32;6.53;;;5.57;;
803;SDS011;25687;49.976;8.240;2024-01-07T12:02:01;6.73;;;5.57;;
803;SDS011;25687;49.976;8.240;2024-01-07T12:04:29;6.23;;;5.63;;
803;SDS011;25687;49.976;8.240;2024-01-07T12:06:54;6.27;;;4.80;;
803;SDS011;25687;49.976;8.240;2024-01-07T12:09:19;10.47;;;6.17;;
803;SDS011;25687;49.976;8.240;2024-01-07T12:11:45;5.57;;;5.00;;
803;SDS011;25687;49.976;8.240;2024-01-07T12:14:11;7.13;;;5.77;;
803;SDS011;25687;49.976;8.240;2024-01-07T12:16:37;7.33;;;6.10;;
803;SDS011;25687;49.976;8.240;2024-01-07T12:19:03;6.03;;;5.13;;
803;SDS011;25687;49.976;8.240;2024-01-07T12:21:28;6.00;;;5.37;;
803;SDS011;25687;49.976;8.240;2024-01-07T12:23:54;5.70;;;5.10;;
803;SDS011;25687;49.976;8.240;2024-01-07T12:26:25;6.73;;;5.70;;
803;SDS011;25687;49.976;8.240;2024-01-07T12:28:54;7.73;;;5.73;;
803;SDS011;25687;49.976;8.240;2024-01-07T12:31:22;8.50;;;5.93;;
803;SDS011;25687;49.976;8.240;2024-01-07T12:33:48;6.63;;;5.20;;
803;SDS011;25687;49.976;8.240;2024-01-07T12:36:13;7.13;;;5.83;;
803;SDS011;25687;49.976;8.240;2024-01-07T12:38:40;6.97;;;5.70;;
803;SDS011;25687;49.976;8.240;2024-01-07T12:41:05;8.07;;;5.73;;
803;SDS011;25687;49.976;8.240;2024-01-07T12:43:31;9.53;;;6.27;;
803;SDS011;25687;49.976;8.240;2024-01-07T12:45:56;8.00;;;6.30;;
803;SDS011;25687;49.976;8.240;2024-01-07T12:48:23;9.90;;;6.03;;
803;SDS011;25687;49.976;8.240;2024-01-07T12:50:48;9.90;;;6.73;;
803;SDS011;25687;49.976;8.240;2024-01-07T12:53:14;8.80;;;6.80;;
803;SDS011;25687;49.976;8.240;2024-01-07T12:55:39;8.63;;;6.10;;
803;SDS011;25687;49.976;8.240;2024-01-07T12:58:05;9.80;;;6.80;;
803;SDS011;25687;49.976;8.240;2024-01-07T13:00:30;9.40;;;6.10;;
803;SDS011;25687;49.976;8.240;2024-01-07T13:02:55;8.30;;;6.27;;
803;SDS011;25687;49.976;8.240;2024-01-07T13:05:21;7.47;;;5.80;;
803;SDS011;25687;49.976;8.240;2024-01-07T13:07:46;8.43;;;5.77;;
803;SDS011;25687;49.976;8.240;2024-01-07T13:10:12;10.33;;;6.37;;
803;SDS011;25687;49.976;8.240;2024-01-07T13:12:38;7.63;;;5.70;;
803;SDS011;25687;49.976;8.240;2024-01-07T13:15:04;7.57;;;6.07;;
803;SDS011;25687;49.976;8.240;2024-01-07T13:17:29;11.03;;;6.23;;
803;SDS011;25687;49.976;8.240;2024-01-07T13:19:58;8.07;;;6.00;;
803;SDS011;25687;49.976;8.240;2024-01-07T13:22:23;7.27;;;5.60;;
803;SDS011;25687;49.976;8.240;2024-01-07T13:24:49;8.23;;;6.00;;
803;SDS011;25687;49.976;8.240;2024-01-07T13:27:15;8.93;;;6.17;;
803;SDS011;25687;49.976;8.240;2024-01-07T13:29:42;10.03;;;6.70;;
803;SDS011;25687;49.976;8.240;2024-01-07T13:32:10;11.03;;;7.03;;
803;SDS011;25687;49.976;8.240;2024-01-07T13:34:35;10.97;;;6.37;;
803;SDS011;25687;49.976;8.240;2024-01-07T13:37:01;11.70;;;6.90;;
803;SDS011;25687;49.976;8.240;2024-01-07T13:39:26;9.87;;;6.23;;
803;SDS011;25687;49.976;8.240;2024-01-07T13:41:51;9.13;;;6.47;;
803;SDS011;25687;49.976;8.240;2024-01-07T13:44:18;7.07;;;5.27;;
803;SDS011;25687;49.976;8.240;2024-01-07T13:46:44;9.40;;;6.03;;
803;SDS011;25687;49.976;8.240;2024-01-07T13:49:11;10.43;;;6.13;;
803;SDS011;25687;49.976;8.240;2024-01-07T13:51:36;9.20;;;6.17;;
803;SDS011;25687;49.976;8.240;2024-01-07T13:54:02;7.23;;;5.70;;
803;SDS011;25687;49.976;8.240;2024-01-07T13:56:28;5.27;;;4.40;;
803;SDS011;25687;49.976;8.240;2024-01-07T13:58:53;6.93;;;5.00;;
803;SDS011;25687;49.976;8.240;2024-01-07T14:01:19;7.17;;;4.97;;
803;SDS011;25687;49.976;8.240;2024-01-07T14:03:44;7.13;;;4.90;;
803;SDS011;25687;49.976;8.240;2024-01-07T14:06:09;6.37;;;4.93;;
803;SDS011;25687;49.976;8.240;2024-01-07T14:08:36;7.37;;;4.90;;
803;SDS011;25687;49.976;8.240;2024-01-07T14:11:01;6.87;;;5.70;;
803;SDS011;25687;49.976;8.240;2024-01-07T14:13:28;10.03;;;5.50;;
803;SDS011;25687;49.976;8.240;2024-01-07T14:15:53;6.53;;;4.80;;
803;SDS011;25687;49.976;8.240;2024-01-07T14:18:20;8.23;;;5.47;;
803;SDS011;25687;49.976;8.240;2024-01-07T14:20:47;7.53;;;5.17;;
803;SDS011;25687;49.976;8.240;2024-01-07T14:23:12;7.63;;;5.77;;
803;SDS011;25687;49.976;8.240;2024-01-07T14:25:38;7.13;;;5.50;;
803;SDS011;25687;49.976;8.240;2024-01-07T14:28:03;7.13;;;5.33;;
803;SDS011;25687;49.976;8.240;2024-01-07T14:30:29;10.50;;;5.57;;
803;SDS011;25687;49.976;8.240;2024-01-07T14:32:54;6.23;;;5.17;;
803;SDS011;25687;49.976;8.240;2024-01-07T14:35:19;6.67;;;4.93;;
803;SDS011;25687;49.976;8.240;2024-01-07T14:37:44;9.80;;;6.37;;
803;SDS011;25687;49.976;8.240;2024-01-07T14:40:10;5.80;;;4.97;;
803;SDS011;25687;49.976;8.240;2024-01-07T14:42:35;9.87;;;5.30;;
803;SDS011;25687;49.976;8.240;2024-01-07T14:45:01;6.73;;;5.73;;
803;SDS011;25687;49.976;8.240;2024-01-07T14:47:26;8.60;;;5.37;;
803;SDS011;25687;49.976;8.240;2024-01-07T14:49:51;6.47;;;5.70;;
803;SDS011;25687;49.976;8.240;2024-01-07T14:52:16;7.13;;;5.00;;
803;SDS011;25687;49.976;8.240;2024-01-07T14:54:42;9.37;;;4.37;;
803;SDS011;25687;49.976;8.240;2024-01-07T14:57:07;8.03;;;5.47;;
803;SDS011;25687;49.976;8.240;2024-01-07T14:59:34;5.67;;;5.07;;
803;SDS011;25687;49.976;8.240;2024-01-07T15:02:02;5.73;;;4.93;;
803;SDS011;25687;49.976;8.240;2024-01-07T15:04:28;7.30;;;5.40;;
803;SDS011;25687;49.976;8.240;2024-01-07T15:06:53;7.67;;;5.33;;
803;SDS011;25687;49.976;8.240;2024-01-07T15:09:18;8.03;;;4.50;;
803;SDS011;25687;49.976;8.240;2024-01-07T15:11:46;5.17;;;4.33;;